createdAt,value
2018-06-16T00:04:55.855Z,100281.00
2018-06-16T00:09:58.888Z,100282.00
2018-06-16T00:15:01.891Z,100269.00
2018-06-16T00:20:05.076Z,100282.00
2018-06-16T00:25:08.056Z,100266.00
2018-06-16T00:30:11.164Z,100267.00
2018-06-16T00:35:14.547Z,100265.00
2018-06-16T00:40:17.703Z,100261.00
2018-06-16T00:45:20.916Z,100257.00
2018-06-16T00:50:24.120Z,100256.00
2018-06-16T00:55:27.284Z,100250.00
2018-06-16T01:00:30.439Z,100258.00
2018-06-16T01:05:33.443Z,100256.00
2018-06-16T01:10:36.440Z,100249.00
2018-06-16T01:15:39.645Z,100241.00
2018-06-16T01:20:42.659Z,100244.00
2018-06-16T01:25:45.851Z,100240.00
2018-06-16T01:30:48.804Z,100245.00
2018-06-16T01:35:51.851Z,100236.00
2018-06-16T01:40:55.218Z,100223.00
2018-06-16T01:45:58.188Z,100239.00
2018-06-16T01:51:01.515Z,100229.00
2018-06-16T01:56:04.688Z,100231.00
2018-06-16T02:01:07.656Z,100233.00
2018-06-16T02:06:10.627Z,100245.00
2018-06-16T02:11:13.816Z,100229.00
2018-06-16T02:16:17.032Z,100237.00
2018-06-16T02:21:20.067Z,100229.00
2018-06-16T02:26:23.032Z,100236.00
2018-06-16T02:31:26.248Z,100236.00
2018-06-16T02:36:29.215Z,100244.00
2018-06-16T02:41:32.414Z,100239.00
2018-06-16T02:46:35.509Z,100231.00
2018-06-16T02:51:38.650Z,100237.00
2018-06-16T02:56:41.611Z,100229.00
2018-06-16T03:01:44.600Z,100230.00
2018-06-16T03:06:47.550Z,100224.00
2018-06-16T03:11:50.532Z,100231.00
2018-06-16T03:16:53.784Z,100229.00
2018-06-16T03:21:56.908Z,100232.00
2018-06-16T03:27:00.163Z,100235.00
2018-06-16T03:32:03.144Z,100239.00
2018-06-16T03:37:06.118Z,100243.00
2018-06-16T03:42:09.399Z,100238.00
2018-06-16T03:47:12.503Z,100236.00
2018-06-16T03:52:15.422Z,100246.00
2018-06-16T03:57:18.619Z,100243.00
2018-06-16T04:02:21.834Z,100246.00
2018-06-16T04:07:24.908Z,100249.00
2018-06-16T04:12:28.048Z,100241.00
2018-06-16T04:17:31.023Z,100239.00
2018-06-16T04:22:33.990Z,100237.00
2018-06-16T04:27:36.962Z,100231.00
2018-06-16T04:32:40.152Z,100238.00
2018-06-16T04:37:43.155Z,100242.00
2018-06-16T04:42:46.271Z,100239.00
2018-06-16T04:47:49.224Z,100239.00
2018-06-16T04:52:52.377Z,100237.00
2018-06-16T04:57:55.340Z,100245.00
2018-06-16T05:02:58.487Z,100247.00
2018-06-16T05:08:01.499Z,100239.00
2018-06-16T05:13:04.903Z,100232.00
2018-06-16T05:18:08.012Z,100236.00
2018-06-16T05:23:11.037Z,100246.00
2018-06-16T05:28:14.021Z,100239.00
2018-06-16T05:33:17.319Z,100235.00
2018-06-16T05:38:20.426Z,100236.00
2018-06-16T05:43:23.535Z,100250.00
2018-06-16T05:48:26.548Z,100252.00
2018-06-16T05:53:29.540Z,100247.00
2018-06-16T05:58:32.668Z,100250.00
2018-06-16T06:03:35.961Z,100253.00
2018-06-16T06:08:39.271Z,100256.00
2018-06-16T06:13:42.441Z,100258.00
2018-06-16T06:18:45.588Z,100253.00
2018-06-16T06:23:48.807Z,100262.00
2018-06-16T06:28:52.115Z,100264.00
2018-06-16T06:33:55.343Z,100267.00
2018-06-16T06:38:58.709Z,100265.00
2018-06-16T06:44:01.837Z,100267.00
2018-06-16T06:49:05.088Z,100261.00
2018-06-16T06:54:08.248Z,100262.00
2018-06-16T06:59:11.467Z,100251.00
2018-06-16T07:04:14.871Z,100257.00
2018-06-16T07:09:18.065Z,100258.00
2018-06-16T07:14:21.048Z,100253.00
2018-06-16T07:19:24.319Z,100248.00
2018-06-16T07:24:27.505Z,100246.00
2018-06-16T07:29:30.615Z,100248.00
2018-06-16T07:34:33.923Z,100251.00
2018-06-16T07:39:36.934Z,100245.00
2018-06-16T07:44:39.978Z,100246.00
2018-06-16T07:49:43.004Z,100236.00
2018-06-16T07:54:46.278Z,100238.00
2018-06-16T07:59:49.263Z,100243.00
2018-06-16T08:04:52.451Z,100247.00
2018-06-16T08:09:56.151Z,100244.00
2018-06-16T08:14:59.384Z,100240.00
2018-06-16T08:20:02.470Z,100236.00
2018-06-16T08:25:05.561Z,100247.00
2018-06-16T08:30:08.650Z,100235.00
2018-06-16T08:35:11.694Z,100232.00
2018-06-16T08:40:14.919Z,100229.00
2018-06-16T08:45:17.978Z,100228.00
2018-06-16T08:50:21.184Z,100225.00
2018-06-16T08:55:24.451Z,100234.00
2018-06-16T09:00:27.549Z,100240.00
2018-06-16T09:05:30.778Z,100239.00
2018-06-16T09:10:33.968Z,100237.00
2018-06-16T09:15:37.280Z,100241.00
2018-06-16T09:20:40.316Z,100237.00
2018-06-16T09:25:43.518Z,100235.00
2018-06-16T09:36:02.684Z,100239.00
2018-06-16T09:41:05.907Z,100243.00
2018-06-16T09:46:08.962Z,100235.00
2018-06-16T09:51:11.997Z,100234.00
2018-06-16T09:56:15.142Z,100238.00
2018-06-16T10:01:18.133Z,100230.00
2018-06-16T10:06:21.213Z,100232.00
2018-06-16T10:11:24.298Z,100229.00
2018-06-16T10:16:27.462Z,100219.00
2018-06-16T10:21:30.736Z,100220.00
2018-06-16T10:26:33.848Z,100217.00
2018-06-16T10:31:36.907Z,100217.00
2018-06-16T10:36:39.937Z,100203.00
2018-06-16T10:41:43.386Z,100198.00
2018-06-16T10:46:46.584Z,100197.00
2018-06-16T10:51:50.859Z,100194.00
2018-06-16T10:56:54.135Z,100185.00
2018-06-16T11:01:57.198Z,100181.00
2018-06-16T11:07:00.325Z,100182.00
2018-06-16T11:12:03.519Z,100183.00
2018-06-16T11:17:06.755Z,100184.00
2018-06-16T11:22:09.761Z,100177.00
2018-06-16T11:27:12.808Z,100168.00
2018-06-16T11:32:15.886Z,100163.00
2018-06-16T11:37:19.195Z,100160.00
2018-06-16T11:42:22.254Z,100152.00
2018-06-16T11:47:25.275Z,100145.00
2018-06-16T11:52:28.285Z,100153.00
2018-06-16T11:57:31.659Z,100143.00
2018-06-16T12:02:34.926Z,100141.00
2018-06-16T12:07:38.091Z,100137.00
2018-06-16T12:12:42.132Z,100131.00
2018-06-16T12:17:45.372Z,100140.00
2018-06-16T12:22:48.497Z,100127.00
2018-06-16T12:27:51.699Z,100127.00
2018-06-16T12:32:54.991Z,100129.00
2018-06-16T12:37:58.120Z,100126.00
2018-06-16T12:43:01.195Z,100132.00
2018-06-16T12:48:04.383Z,100133.00
2018-06-16T12:53:07.404Z,100117.00
2018-06-16T12:58:10.561Z,100120.00
2018-06-16T13:03:14.371Z,100118.00
2018-06-16T13:08:17.453Z,100119.00
2018-06-16T13:13:20.537Z,100116.00
2018-06-16T13:18:23.569Z,100114.00
2018-06-16T13:23:26.608Z,100114.00
2018-06-16T13:28:29.596Z,100104.00
2018-06-16T13:33:32.656Z,100108.00
2018-06-16T13:38:35.749Z,100103.00
2018-06-16T13:43:38.765Z,100089.00
2018-06-16T13:48:41.788Z,100088.00
2018-06-16T13:53:44.855Z,100095.00
2018-06-16T13:58:47.909Z,100088.00
2018-06-16T14:03:50.984Z,100077.00
2018-06-16T14:08:54.064Z,100078.00
2018-06-16T14:13:57.044Z,100070.00
2018-06-16T14:19:00.240Z,100077.00
2018-06-16T14:24:03.332Z,100078.00
2018-06-16T14:29:06.352Z,100067.00
2018-06-16T14:34:09.446Z,100075.00
2018-06-16T14:39:12.680Z,100061.00
2018-06-16T14:44:15.992Z,100065.00
2018-06-16T14:49:19.193Z,100069.00
2018-06-16T14:54:22.264Z,100069.00
2018-06-16T14:59:25.279Z,100068.00
2018-06-16T15:04:28.482Z,100053.00
2018-06-16T15:09:31.718Z,100056.00
2018-06-16T15:14:34.783Z,100046.00
2018-06-16T15:19:37.856Z,100045.00
2018-06-16T15:24:40.823Z,100037.00
2018-06-16T15:29:43.820Z,100040.00
2018-06-16T15:34:46.805Z,100038.00
2018-06-16T15:39:49.929Z,100053.00
2018-06-16T15:44:53.152Z,100035.00
2018-06-16T15:49:56.194Z,100035.00
2018-06-16T15:54:59.674Z,100042.00
2018-06-16T16:00:02.756Z,100039.00
2018-06-16T16:05:06.221Z,100030.00
2018-06-16T16:10:09.408Z,100016.00
2018-06-16T16:15:12.613Z,100023.00
2018-06-16T16:20:15.671Z,100018.00
2018-06-16T16:25:19.019Z,100016.00
2018-06-16T16:30:22.236Z,100015.00
2018-06-16T16:35:25.360Z,100009.00
2018-06-16T16:40:28.407Z,100020.00
2018-06-16T16:45:31.457Z,100014.00
2018-06-16T16:50:34.509Z,100015.00
2018-06-16T16:55:37.808Z,100018.00
2018-06-16T17:00:40.958Z,100019.00
2018-06-16T17:05:44.056Z,100013.00
2018-06-16T17:10:47.223Z,100005.00
2018-06-16T17:15:50.228Z,99989.00
2018-06-16T17:20:53.445Z,99994.00
2018-06-16T17:25:56.493Z,99987.00
2018-06-16T17:31:00.021Z,99999.00
2018-06-16T17:36:03.100Z,99991.00
2018-06-16T17:41:06.159Z,99990.00
2018-06-16T17:46:09.287Z,99994.00
2018-06-16T17:51:12.756Z,99998.00
2018-06-16T17:56:15.825Z,100001.00
2018-06-16T18:01:18.925Z,100000.00
2018-06-16T18:06:22.003Z,99996.00
2018-06-16T18:11:25.080Z,99998.00
2018-06-16T18:16:28.085Z,100000.00
2018-06-16T18:21:31.586Z,100002.00
2018-06-16T18:26:34.843Z,100006.00
2018-06-16T18:31:38.088Z,100003.00
2018-06-16T18:36:41.179Z,100001.00
2018-06-16T18:41:44.441Z,100009.00
2018-06-16T18:46:47.416Z,100006.00
2018-06-16T18:51:50.473Z,100006.00
2018-06-16T18:56:53.648Z,100002.00
2018-06-16T19:01:56.853Z,100008.00
2018-06-16T19:07:00.169Z,100004.00
2018-06-16T19:12:03.498Z,100008.00
2018-06-16T19:17:06.798Z,99996.00
2018-06-16T19:22:09.833Z,100007.00
2018-06-16T19:27:12.981Z,100010.00
2018-06-16T19:32:16.195Z,100012.00
2018-06-16T19:37:19.713Z,100011.00
2018-06-16T19:42:22.750Z,100024.00
2018-06-16T19:47:25.755Z,100022.00
2018-06-16T19:52:29.000Z,100040.00
2018-06-16T19:57:32.351Z,100040.00
2018-06-16T20:02:35.396Z,100035.00
2018-06-16T20:07:38.472Z,100038.00
2018-06-16T20:12:41.758Z,100055.00
2018-06-16T20:17:45.070Z,100056.00
2018-06-16T20:22:48.065Z,100063.00
2018-06-16T20:27:51.151Z,100080.00
2018-06-16T20:32:54.195Z,100066.00
2018-06-16T20:37:57.520Z,100075.00
2018-06-16T20:43:00.589Z,100083.00
2018-06-16T20:48:03.672Z,100091.00
2018-06-16T20:53:06.745Z,100093.00
2018-06-16T20:58:10.045Z,100108.00
2018-06-16T21:03:13.289Z,100106.00
2018-06-16T21:08:16.624Z,100112.00
2018-06-16T21:13:19.648Z,100111.00
2018-06-16T21:18:22.661Z,100114.00
2018-06-16T21:23:25.692Z,100114.00
2018-06-16T21:28:28.964Z,100114.00
2018-06-16T21:33:32.001Z,100117.00
2018-06-16T21:38:35.043Z,100117.00
2018-06-16T21:43:38.278Z,100110.00
2018-06-16T21:48:41.480Z,100127.00
2018-06-16T21:53:44.469Z,100127.00
2018-06-16T21:58:47.517Z,100136.00
2018-06-16T22:03:50.699Z,100130.00
2018-06-16T22:08:54.246Z,100138.00
2018-06-16T22:13:57.539Z,100139.00
2018-06-16T22:19:00.701Z,100142.00
2018-06-16T22:24:04.955Z,100151.00
2018-06-16T22:29:08.009Z,100156.00
2018-06-16T22:34:11.085Z,100155.00
2018-06-16T22:39:14.213Z,100166.00
2018-06-16T22:44:17.211Z,100161.00
2018-06-16T22:49:20.199Z,100172.00
2018-06-16T22:54:23.252Z,100166.00
2018-06-16T22:59:26.460Z,100175.00
2018-06-16T23:04:29.725Z,100170.00
2018-06-16T23:26:16.057Z,100178.00
2018-06-16T23:31:19.359Z,100173.00
2018-06-16T23:36:22.360Z,100177.00
2018-06-16T23:41:25.604Z,100172.00
2018-06-16T23:46:28.747Z,100176.00
2018-06-16T23:51:31.719Z,100180.00
2018-06-16T23:56:34.895Z,100180.00
